Time;durP1;ratioP1;P1;durP2;ratioP2;P2;SDS_P1;SDS_P2;PMS_P1;PMS_P2;Temp;Humidity;BMP_temperature;BMP_pressure;BME280_temperature;BME280_humidity;BME280_pressure;Samples;Min_cycle;Max_cycle;Signal;HPM_P1;HPM_P2
2023/06/06 00:00:18;;;;;;;57.97;3.17;;;;;;;;;;5050370;28;20488;-67
2023/06/06 00:02:45;;;;;;;57.40;2.90;;;;;;;;;;5050637;28;20468;-67
2023/06/06 00:05:13;;;;;;;57.33;2.47;;;;;;;;;;5050704;28;20952;-67
2023/06/06 00:07:40;;;;;;;57.60;2.50;;;;;;;;;;5050641;28;20551;-67
2023/06/06 00:10:09;;;;;;;57.37;2.60;;;;;;;;;;5050368;28;20474;-67
2023/06/06 00:12:37;;;;;;;57.47;2.57;;;;;;;;;;5050908;28;20479;-67
2023/06/06 00:15:05;;;;;;;57.47;3.13;;;;;;;;;;5051059;28;20855;-67
2023/06/06 00:17:32;;;;;;;57.17;2.53;;;;;;;;;;5050770;28;20586;-67
2023/06/06 00:20:00;;;;;;;57.23;2.50;;;;;;;;;;5050005;28;21113;-67
2023/06/06 00:22:27;;;;;;;57.43;2.83;;;;;;;;;;5050804;28;20492;-67
2023/06/06 00:24:54;;;;;;;57.70;2.40;;;;;;;;;;5050750;28;20526;-67
2023/06/06 00:27:23;;;;;;;57.37;2.40;;;;;;;;;;5050778;28;20455;-67
2023/06/06 00:29:50;;;;;;;57.37;2.70;;;;;;;;;;5049838;28;20832;-67
2023/06/06 00:32:17;;;;;;;57.37;2.50;;;;;;;;;;5050637;28;20464;-67
2023/06/06 00:34:44;;;;;;;58.27;3.37;;;;;;;;;;5050686;28;20448;-67
2023/06/06 00:37:11;;;;;;;57.80;2.93;;;;;;;;;;5050637;28;20444;-67
2023/06/06 00:39:38;;;;;;;57.27;2.40;;;;;;;;;;5049777;28;20456;-67
2023/06/06 00:42:06;;;;;;;57.33;2.70;;;;;;;;;;5051614;28;20498;-67
2023/06/06 00:44:34;;;;;;;57.37;2.70;;;;;;;;;;5053953;28;20451;-67
2023/06/06 00:47:02;;;;;;;57.57;2.60;;;;;;;;;;5054233;28;20448;-67
2023/06/06 00:49:29;;;;;;;58.00;3.37;;;;;;;;;;5053573;28;20463;-67
2023/06/06 00:51:56;;;;;;;57.33;2.40;;;;;;;;;;5054043;28;20851;-67
2023/06/06 00:54:24;;;;;;;57.80;2.60;;;;;;;;;;5054059;28;20455;-67
2023/06/06 00:56:52;;;;;;;57.23;2.43;;;;;;;;;;5053750;28;20460;-67
2023/06/06 00:59:20;;;;;;;57.57;2.87;;;;;;;;;;5053327;28;20460;-67
2023/06/06 01:01:48;;;;;;;57.13;2.50;;;;;;;;;;5053533;28;20498;-67
2023/06/06 01:04:17;;;;;;;57.57;2.87;;;;;;;;;;5053800;28;20459;-67
2023/06/06 01:06:45;;;;;;;57.13;2.50;;;;;;;;;;5053628;28;20968;-67
2023/06/06 01:09:13;;;;;;;57.47;2.50;;;;;;;;;;5053251;28;20455;-67
2023/06/06 01:11:44;;;;;;;57.53;2.57;;;;;;;;;;5053449;28;20444;-67
2023/06/06 01:14:13;;;;;;;57.70;2.70;;;;;;;;;;5053955;28;20459;-67
2023/06/06 01:16:42;;;;;;;58.50;3.00;;;;;;;;;;5053628;28;20506;-67
2023/06/06 01:19:14;;;;;;;57.57;2.70;;;;;;;;;;5049528;28;20879;-67
2023/06/06 01:21:44;;;;;;;57.47;3.13;;;;;;;;;;5053477;28;20938;-67
2023/06/06 01:24:12;;;;;;;58.10;2.97;;;;;;;;;;5053423;28;20456;-67
2023/06/06 01:26:39;;;;;;;57.50;2.60;;;;;;;;;;5053253;28;20983;-67
2023/06/06 01:29:06;;;;;;;57.40;2.53;;;;;;;;;;5052809;28;20448;-67
2023/06/06 01:31:36;;;;;;;57.77;2.63;;;;;;;;;;5053164;28;20749;-67
2023/06/06 01:34:08;;;;;;;57.57;2.83;;;;;;;;;;5053274;28;20448;-67
2023/06/06 01:36:38;;;;;;;57.57;2.60;;;;;;;;;;5053195;28;20429;-67
2023/06/06 01:39:11;;;;;;;57.33;2.60;;;;;;;;;;5052713;28;20444;-67
2023/06/06 01:41:38;;;;;;;57.40;2.40;;;;;;;;;;5053231;28;20475;-67
2023/06/06 01:44:07;;;;;;;57.80;3.13;;;;;;;;;;5053288;28;20452;-67
2023/06/06 01:46:36;;;;;;;57.57;2.70;;;;;;;;;;5052966;28;20547;-67
2023/06/06 01:49:04;;;;;;;57.47;2.40;;;;;;;;;;5052325;28;20807;-67
2023/06/06 01:51:32;;;;;;;58.30;2.97;;;;;;;;;;5053135;28;20452;-67
2023/06/06 01:53:59;;;;;;;60.33;2.90;;;;;;;;;;5052257;28;20452;-67
2023/06/06 01:56:33;;;;;;;57.70;2.90;;;;;;;;;;5052617;28;20460;-67
2023/06/06 01:59:00;;;;;;;57.07;2.40;;;;;;;;;;5052413;28;20543;-67
2023/06/06 02:01:28;;;;;;;57.43;2.50;;;;;;;;;;5052868;28;20487;-67
2023/06/06 02:03:56;;;;;;;57.60;2.87;;;;;;;;;;5052688;28;20460;-67
2023/06/06 02:06:23;;;;;;;57.83;2.70;;;;;;;;;;5052417;28;20457;-67
2023/06/06 02:08:50;;;;;;;58.70;3.80;;;;;;;;;;5052138;28;20457;-67
2023/06/06 02:11:17;;;;;;;57.37;2.43;;;;;;;;;;5052844;28;20440;-67
2023/06/06 02:13:47;;;;;;;57.37;2.60;;;;;;;;;;5052392;28;20472;-67
2023/06/06 02:16:15;;;;;;;57.43;2.80;;;;;;;;;;5052575;28;20441;-67
2023/06/06 02:18:44;;;;;;;57.33;2.50;;;;;;;;;;5051706;28;20456;-66
2023/06/06 02:21:12;;;;;;;57.37;2.43;;;;;;;;;;5052434;28;20480;-67
2023/06/06 02:23:39;;;;;;;57.67;2.70;;;;;;;;;;5052234;28;21018;-67
2023/06/06 02:26:06;;;;;;;57.33;2.57;;;;;;;;;;5052116;28;20937;-67
2023/06/06 02:28:33;;;;;;;57.33;2.67;;;;;;;;;;5051633;28;20449;-66
2023/06/06 02:31:02;;;;;;;57.33;2.60;;;;;;;;;;5052172;28;20828;-67
2023/06/06 02:33:29;;;;;;;57.37;2.60;;;;;;;;;;5051969;28;21050;-67
2023/06/06 02:35:56;;;;;;;57.90;2.63;;;;;;;;;;5052176;28;20864;-67
2023/06/06 02:38:24;;;;;;;57.23;2.60;;;;;;;;;;5052162;28;20444;-67
2023/06/06 02:40:51;;;;;;;57.60;2.33;;;;;;;;;;5051446;28;20468;-67
2023/06/06 02:43:18;;;;;;;57.50;2.53;;;;;;;;;;5051711;28;20488;-67
2023/06/06 02:45:46;;;;;;;57.57;2.70;;;;;;;;;;5052041;28;20440;-67
2023/06/06 02:48:15;;;;;;;57.43;2.50;;;;;;;;;;5051686;28;20495;-67
2023/06/06 02:50:42;;;;;;;57.50;2.60;;;;;;;;;;5051053;28;20509;-67
2023/06/06 02:53:11;;;;;;;57.63;2.87;;;;;;;;;;5051951;28;20836;-67
2023/06/06 02:55:38;;;;;;;57.70;2.80;;;;;;;;;;5051697;28;20518;-67
2023/06/06 02:58:05;;;;;;;57.47;2.53;;;;;;;;;;5052271;28;20433;-67
2023/06/06 03:00:33;;;;;;;57.57;2.60;;;;;;;;;;5050789;28;20452;-67
2023/06/06 03:03:00;;;;;;;57.20;2.53;;;;;;;;;;5051389;28;21052;-67
2023/06/06 03:05:29;;;;;;;57.43;2.50;;;;;;;;;;5051397;28;20444;-67
2023/06/06 03:07:57;;;;;;;57.57;3.07;;;;;;;;;;5051578;28;20459;-67
2023/06/06 03:10:24;;;;;;;57.27;2.40;;;;;;;;;;5051018;28;20456;-67
2023/06/06 03:12:51;;;;;;;57.37;2.60;;;;;;;;;;5051346;28;20491;-67
2023/06/06 03:15:18;;;;;;;57.27;2.40;;;;;;;;;;5051088;28;20945;-67
2023/06/06 03:17:48;;;;;;;57.37;2.60;;;;;;;;;;5051580;28;20460;-67
2023/06/06 03:20:15;;;;;;;57.47;3.10;;;;;;;;;;5050535;28;21010;-67
2023/06/06 03:22:44;;;;;;;58.40;3.20;;;;;;;;;;5051174;28;20909;-67
2023/06/06 03:25:13;;;;;;;57.47;2.33;;;;;;;;;;5051249;28;20467;-67
2023/06/06 03:27:42;;;;;;;57.27;2.60;;;;;;;;;;5050938;28;20458;-67
2023/06/06 03:30:10;;;;;;;57.50;3.03;;;;;;;;;;5050663;28;20454;-67
2023/06/06 03:32:37;;;;;;;57.90;3.30;;;;;;;;;;5051283;28;20859;-67
2023/06/06 03:35:04;;;;;;;57.93;2.80;;;;;;;;;;5051411;28;20454;-66
2023/06/06 03:37:32;;;;;;;57.30;2.77;;;;;;;;;;5051033;28;20453;-67
2023/06/06 03:40:00;;;;;;;57.43;2.60;;;;;;;;;;5050337;28;20453;-67
2023/06/06 03:42:27;;;;;;;57.27;2.67;;;;;;;;;;5051345;28;20582;-67
2023/06/06 03:44:55;;;;;;;57.13;2.60;;;;;;;;;;5051172;28;20456;-67
2023/06/06 03:47:22;;;;;;;57.57;2.80;;;;;;;;;;5051078;28;20459;-67
2023/06/06 03:49:49;;;;;;;57.33;2.60;;;;;;;;;;5050337;28;20444;-67
2023/06/06 03:52:16;;;;;;;57.60;2.90;;;;;;;;;;5050519;28;20511;-67
2023/06/06 03:54:43;;;;;;;57.70;2.60;;;;;;;;;;5050734;28;20972;-67
2023/06/06 03:57:12;;;;;;;57.80;2.80;;;;;;;;;;5051171;28;20464;-67
2023/06/06 03:59:40;;;;;;;58.40;2.93;;;;;;;;;;5050307;28;20455;-67
2023/06/06 04:02:07;;;;;;;57.53;2.57;;;;;;;;;;5050993;28;20546;-67
2023/06/06 04:04:36;;;;;;;58.60;4.13;;;;;;;;;;5050843;28;20456;-67
2023/06/06 04:07:03;;;;;;;57.57;2.70;;;;;;;;;;5051030;28;20459;-67
2023/06/06 04:09:31;;;;;;;57.37;2.60;;;;;;;;;;5050054;28;20448;-67
2023/06/06 04:11:58;;;;;;;57.27;2.37;;;;;;;;;;5050957;28;20465;-67
2023/06/06 04:14:27;;;;;;;58.10;3.33;;;;;;;;;;5050898;28;20444;-67
2023/06/06 04:16:54;;;;;;;58.27;2.60;;;;;;;;;;5052006;28;20447;-67
2023/06/06 04:19:21;;;;;;;57.33;2.70;;;;;;;;;;5053889;28;20448;-67
2023/06/06 04:21:48;;;;;;;57.37;2.93;;;;;;;;;;5054320;28;20850;-67
2023/06/06 04:24:16;;;;;;;57.30;2.60;;;;;;;;;;5054831;28;20463;-67
2023/06/06 04:26:44;;;;;;;57.57;2.60;;;;;;;;;;5054742;28;20452;-67
2023/06/06 04:29:12;;;;;;;57.13;2.60;;;;;;;;;;5054001;28;20451;-67
2023/06/06 04:31:41;;;;;;;57.40;2.43;;;;;;;;;;5054324;28;20456;-67
2023/06/06 04:34:09;;;;;;;57.43;2.50;;;;;;;;;;5054426;28;20448;-67
2023/06/06 04:36:38;;;;;;;57.40;2.60;;;;;;;;;;5054169;28;20456;-67
2023/06/06 04:39:06;;;;;;;57.70;3.43;;;;;;;;;;5053538;28;20511;-67
2023/06/06 04:41:34;;;;;;;57.30;2.30;;;;;;;;;;5054301;28;20448;-67
2023/06/06 04:44:02;;;;;;;57.70;2.73;;;;;;;;;;5054274;28;20455;-67
2023/06/06 04:46:30;;;;;;;57.27;2.40;;;;;;;;;;5054037;28;20448;-67
2023/06/06 04:49:01;;;;;;;57.60;2.60;;;;;;;;;;5053547;28;20448;-67
2023/06/06 04:51:33;;;;;;;57.90;2.93;;;;;;;;;;5054202;28;20851;-67
2023/06/06 04:54:01;;;;;;;57.70;2.70;;;;;;;;;;5054207;28;20448;-67
2023/06/06 04:56:29;;;;;;;57.27;2.40;;;;;;;;;;5053693;28;20956;-67
2023/06/06 04:58:56;;;;;;;57.57;2.67;;;;;;;;;;5053197;28;20448;-67
2023/06/06 05:01:24;;;;;;;57.80;3.30;;;;;;;;;;5053664;28;20462;-67
2023/06/06 05:03:51;;;;;;;57.70;3.47;;;;;;;;;;5053617;28;21067;-67
2023/06/06 05:06:20;;;;;;;57.90;3.60;;;;;;;;;;5053884;28;20452;-67
2023/06/06 05:08:48;;;;;;;57.20;2.80;;;;;;;;;;5053123;28;20444;-67
2023/06/06 05:11:15;;;;;;;57.40;2.53;;;;;;;;;;5053966;28;20849;-67
2023/06/06 05:13:42;;;;;;;57.23;2.63;;;;;;;;;;5053467;28;20997;-68
2023/06/06 05:16:09;;;;;;;57.30;2.60;;;;;;;;;;5053631;28;20471;-67
2023/06/06 05:18:37;;;;;;;57.80;2.50;;;;;;;;;;5053063;28;20451;-67
2023/06/06 05:21:04;;;;;;;57.27;2.60;;;;;;;;;;5053641;28;20870;-67
2023/06/06 05:23:33;;;;;;;57.23;2.40;;;;;;;;;;5053294;28;20514;-67
2023/06/06 05:26:00;;;;;;;57.20;2.40;;;;;;;;;;5053160;28;20938;-68
2023/06/06 05:28:28;;;;;;;57.97;2.47;;;;;;;;;;5053123;28;20460;-67
2023/06/06 05:30:56;;;;;;;56.97;2.40;;;;;;;;;;5053062;28;20530;-67
2023/06/06 05:33:25;;;;;;;57.57;2.83;;;;;;;;;;5053320;28;20571;-67
2023/06/06 05:35:52;;;;;;;57.30;2.83;;;;;;;;;;5053180;28;20457;-67
2023/06/06 05:38:19;;;;;;;57.63;2.60;;;;;;;;;;5053116;28;20459;-68
2023/06/06 05:40:48;;;;;;;57.37;2.50;;;;;;;;;;5052269;28;21010;-67
2023/06/06 05:43:15;;;;;;;57.13;2.40;;;;;;;;;;5052772;28;20495;-67
2023/06/06 05:45:42;;;;;;;57.27;2.60;;;;;;;;;;5053192;28;20464;-67
2023/06/06 05:48:09;;;;;;;57.17;2.40;;;;;;;;;;5053261;28;20458;-67
2023/06/06 05:50:36;;;;;;;57.80;2.90;;;;;;;;;;5052568;28;20444;-67
2023/06/06 05:53:04;;;;;;;57.23;2.60;;;;;;;;;;5052731;28;20472;-67
2023/06/06 05:55:31;;;;;;;58.00;2.60;;;;;;;;;;5052482;28;20455;-67
2023/06/06 05:58:00;;;;;;;57.97;3.20;;;;;;;;;;5053151;28;21204;-67
2023/06/06 06:00:28;;;;;;;58.00;3.90;;;;;;;;;;5052221;28;20448;-68
2023/06/06 06:02:57;;;;;;;57.33;2.40;;;;;;;;;;5052677;28;20495;-67
2023/06/06 06:05:28;;;;;;;57.27;2.50;;;;;;;;;;5052842;28;20819;-67
2023/06/06 06:07:55;;;;;;;57.10;2.50;;;;;;;;;;5052874;28;20433;-68
2023/06/06 06:10:22;;;;;;;57.50;2.80;;;;;;;;;;5051773;28;20535;-67
2023/06/06 06:12:49;;;;;;;57.40;2.50;;;;;;;;;;5052317;28;20483;-67
2023/06/06 06:15:17;;;;;;;57.90;2.90;;;;;;;;;;5052528;28;20452;-67
2023/06/06 06:17:45;;;;;;;57.07;2.40;;;;;;;;;;5052313;28;20953;-67
2023/06/06 06:20:13;;;;;;;57.27;2.70;;;;;;;;;;5051950;28;20817;-67
2023/06/06 06:22:40;;;;;;;57.70;3.10;;;;;;;;;;5052258;28;20484;-68
2023/06/06 06:25:12;;;;;;;57.07;2.60;;;;;;;;;;5052462;28;20459;-66
2023/06/06 06:27:39;;;;;;;59.30;3.73;;;;;;;;;;5052275;28;20456;-65
2023/06/06 06:30:08;;;;;;;56.87;2.50;;;;;;;;;;5051740;28;20452;-67
2023/06/06 06:32:37;;;;;;;57.57;2.50;;;;;;;;;;5051955;28;21011;-67
2023/06/06 06:35:04;;;;;;;57.27;2.70;;;;;;;;;;5052202;28;20448;-67
2023/06/06 06:37:32;;;;;;;57.30;2.60;;;;;;;;;;5051854;28;20509;-67
2023/06/06 06:39:59;;;;;;;57.40;2.63;;;;;;;;;;5050874;28;20448;-67
2023/06/06 06:42:26;;;;;;;58.30;2.70;;;;;;;;;;5051647;28;20551;-68
2023/06/06 06:44:54;;;;;;;57.40;2.70;;;;;;;;;;5052122;28;20448;-66
2023/06/06 06:47:21;;;;;;;58.80;4.13;;;;;;;;;;5051874;28;20452;-66
2023/06/06 06:49:50;;;;;;;57.33;2.63;;;;;;;;;;5051067;28;20453;-65
2023/06/06 06:52:17;;;;;;;57.80;3.20;;;;;;;;;;5051883;28;20570;-66
2023/06/06 06:54:46;;;;;;;57.37;2.40;;;;;;;;;;5051759;28;20561;-66
2023/06/06 06:57:13;;;;;;;57.27;2.47;;;;;;;;;;5051519;28;20460;-67
2023/06/06 06:59:42;;;;;;;57.57;2.80;;;;;;;;;;5050904;28;20456;-67
2023/06/06 07:02:09;;;;;;;58.47;4.30;;;;;;;;;;5051434;28;20526;-67
2023/06/06 07:04:39;;;;;;;59.50;3.13;;;;;;;;;;5051378;28;20491;-66
2023/06/06 07:07:08;;;;;;;57.93;2.77;;;;;;;;;;5051586;28;20448;-66
2023/06/06 07:09:35;;;;;;;57.13;2.60;;;;;;;;;;5050545;28;20957;-67
2023/06/06 07:12:05;;;;;;;57.30;2.60;;;;;;;;;;5051389;28;20464;-67
2023/06/06 07:14:32;;;;;;;57.30;2.53;;;;;;;;;;5051476;28;21003;-67
2023/06/06 07:16:59;;;;;;;57.00;2.27;;;;;;;;;;5051045;28;20452;-67
2023/06/06 07:19:26;;;;;;;57.03;2.57;;;;;;;;;;5050799;28;20444;-67
2023/06/06 07:21:56;;;;;;;57.17;2.80;;;;;;;;;;5051077;28;20478;-67
2023/06/06 07:24:24;;;;;;;58.00;3.10;;;;;;;;;;5051199;28;20483;-67
2023/06/06 07:26:52;;;;;;;57.27;2.60;;;;;;;;;;5051007;28;20960;-66
2023/06/06 07:29:21;;;;;;;57.17;2.40;;;;;;;;;;5050271;28;20452;-66
2023/06/06 07:31:48;;;;;;;56.97;2.50;;;;;;;;;;5051123;28;20476;-67
2023/06/06 07:34:15;;;;;;;57.60;2.70;;;;;;;;;;5051010;28;20458;-67
2023/06/06 07:36:42;;;;;;;57.40;2.50;;;;;;;;;;5051191;28;20444;-67
2023/06/06 07:39:09;;;;;;;57.40;2.40;;;;;;;;;;5050522;28;20466;-67
2023/06/06 07:41:40;;;;;;;57.17;2.10;;;;;;;;;;5050945;28;20496;-67
2023/06/06 07:44:07;;;;;;;57.30;2.63;;;;;;;;;;5051037;28;20475;-67
2023/06/06 07:46:34;;;;;;;57.27;2.77;;;;;;;;;;5050822;28;20476;-67
2023/06/06 07:49:01;;;;;;;57.27;2.43;;;;;;;;;;5050318;28;20448;-67
2023/06/06 07:51:30;;;;;;;57.37;2.80;;;;;;;;;;5051461;28;20454;-67
2023/06/06 07:53:57;;;;;;;57.00;2.10;;;;;;;;;;5055316;28;20436;-67
2023/06/06 07:56:24;;;;;;;56.80;2.33;;;;;;;;;;5054718;28;20470;-67
2023/06/06 07:58:54;;;;;;;57.07;2.27;;;;;;;;;;5054299;28;20460;-67
2023/06/06 08:01:23;;;;;;;57.70;2.40;;;;;;;;;;5054974;28;20946;-67
2023/06/06 08:03:50;;;;;;;58.07;3.53;;;;;;;;;;5054894;28;20530;-67
2023/06/06 08:06:18;;;;;;;57.50;2.50;;;;;;;;;;5054913;28;20456;-68
2023/06/06 08:08:45;;;;;;;57.90;2.70;;;;;;;;;;5053989;28;20444;-67
2023/06/06 08:11:13;;;;;;;56.53;2.10;;;;;;;;;;5054737;28;20456;-67
2023/06/06 08:13:40;;;;;;;57.90;3.13;;;;;;;;;;5054800;28;20468;-67
2023/06/06 08:16:08;;;;;;;57.50;2.40;;;;;;;;;;5054583;28;20828;-67
2023/06/06 08:18:36;;;;;;;57.47;2.50;;;;;;;;;;5053996;28;20450;-67
2023/06/06 08:21:03;;;;;;;57.00;2.50;;;;;;;;;;5054781;28;20456;-67
2023/06/06 08:23:30;;;;;;;56.53;2.00;;;;;;;;;;5054476;28;20483;-67
2023/06/06 08:25:57;;;;;;;56.87;2.10;;;;;;;;;;5054662;28;20455;-67
2023/06/06 08:28:25;;;;;;;56.97;2.30;;;;;;;;;;5054358;28;20908;-67
2023/06/06 08:30:52;;;;;;;56.90;2.70;;;;;;;;;;5053717;28;20458;-68
2023/06/06 08:33:21;;;;;;;57.20;2.40;;;;;;;;;;5054531;28;20802;-67
2023/06/06 08:35:48;;;;;;;57.80;2.87;;;;;;;;;;5054486;28;20451;-67
2023/06/06 08:38:16;;;;;;;57.80;2.93;;;;;;;;;;5054207;28;20455;-67
2023/06/06 08:40:44;;;;;;;57.80;3.10;;;;;;;;;;5053737;28;20497;-67
2023/06/06 08:43:12;;;;;;;57.50;3.07;;;;;;;;;;5054308;28;20483;-67
2023/06/06 08:45:42;;;;;;;56.80;2.20;;;;;;;;;;5054312;28;20616;-67
2023/06/06 08:48:09;;;;;;;57.00;2.33;;;;;;;;;;5054083;28;20453;-67
2023/06/06 08:50:39;;;;;;;56.93;2.60;;;;;;;;;;5053137;28;20455;-67
2023/06/06 08:53:07;;;;;;;57.10;2.20;;;;;;;;;;5054125;28;20464;-67
2023/06/06 08:55:35;;;;;;;58.47;2.37;;;;;;;;;;5053734;28;20459;-68
2023/06/06 08:58:03;;;;;;;57.30;2.83;;;;;;;;;;5054179;28;20437;-67
2023/06/06 09:00:30;;;;;;;57.17;2.07;;;;;;;;;;5053171;28;20455;-67
2023/06/06 09:02:59;;;;;;;56.83;1.93;;;;;;;;;;5053139;28;20988;-68
2023/06/06 09:05:26;;;;;;;57.47;2.30;;;;;;;;;;5054034;28;20482;-68
2023/06/06 09:07:55;;;;;;;56.97;2.20;;;;;;;;;;5053584;28;20490;-68
2023/06/06 09:10:22;;;;;;;57.10;2.30;;;;;;;;;;5053316;28;20479;-66
2023/06/06 09:12:50;;;;;;;57.40;2.53;;;;;;;;;;5053490;28;20471;-65
2023/06/06 09:15:17;;;;;;;57.37;2.77;;;;;;;;;;5053797;28;20454;-67
2023/06/06 09:17:45;;;;;;;57.20;2.30;;;;;;;;;;5053668;28;20458;-67
2023/06/06 09:20:13;;;;;;;57.00;2.40;;;;;;;;;;5052720;28;20983;-68
2023/06/06 09:22:40;;;;;;;57.10;2.20;;;;;;;;;;5053455;28;20476;-67
2023/06/06 09:25:17;;;;;;;56.90;2.53;;;;;;;;;;5053242;28;20872;-67
2023/06/06 09:27:44;;;;;;;57.00;2.50;;;;;;;;;;5053597;28;20502;-67
2023/06/06 09:30:19;;;;;;;56.67;2.20;;;;;;;;;;5052643;28;20449;-67
2023/06/06 09:32:47;;;;;;;57.70;2.60;;;;;;;;;;5053386;28;20467;-68
2023/06/06 09:35:15;;;;;;;57.60;2.93;;;;;;;;;;5053111;28;20544;-67
2023/06/06 09:37:42;;;;;;;57.20;2.37;;;;;;;;;;5053326;28;20805;-68
2023/06/06 09:40:14;;;;;;;57.30;2.50;;;;;;;;;;5052664;28;20455;-68
2023/06/06 09:42:43;;;;;;;56.87;2.40;;;;;;;;;;5052825;28;20984;-68
2023/06/06 09:45:14;;;;;;;56.73;2.20;;;;;;;;;;5053139;28;20488;-68
2023/06/06 09:47:42;;;;;;;58.00;2.90;;;;;;;;;;5053047;28;20463;-68
2023/06/06 09:50:10;;;;;;;56.37;2.43;;;;;;;;;;5052308;28;20475;-68
2023/06/06 09:52:37;;;;;;;59.50;2.50;;;;;;;;;;5052832;28;20507;-67
2023/06/06 09:55:07;;;;;;;56.87;2.70;;;;;;;;;;5052832;28;20445;-68
2023/06/06 09:57:37;;;;;;;57.30;2.50;;;;;;;;;;5052644;28;20464;-68
2023/06/06 10:00:09;;;;;;;56.47;2.17;;;;;;;;;;5052522;28;20451;-68
2023/06/06 10:02:41;;;;;;;56.77;2.37;;;;;;;;;;5052664;28;20486;-67
2023/06/06 10:05:10;;;;;;;57.00;2.10;;;;;;;;;;5052507;28;20472;-68
2023/06/06 10:07:38;;;;;;;56.67;2.37;;;;;;;;;;5052355;28;20948;-68
2023/06/06 10:10:06;;;;;;;57.13;2.17;;;;;;;;;;5052025;28;20454;-68
2023/06/06 10:12:33;;;;;;;56.47;2.00;;;;;;;;;;5052419;28;21028;-68
2023/06/06 10:15:02;;;;;;;59.17;2.50;;;;;;;;;;5051735;28;20453;-68
2023/06/06 10:17:30;;;;;;;56.87;2.27;;;;;;;;;;5052472;28;20448;-68
2023/06/06 10:20:03;;;;;;;56.90;2.20;;;;;;;;;;5051817;28;20464;-68
2023/06/06 10:22:30;;;;;;;56.80;2.40;;;;;;;;;;5052167;28;21046;-68
2023/06/06 10:24:59;;;;;;;57.00;2.40;;;;;;;;;;5052379;28;20480;-66
2023/06/06 10:27:27;;;;;;;58.40;2.37;;;;;;;;;;5052201;28;20445;-68
2023/06/06 10:29:57;;;;;;;56.70;2.30;;;;;;;;;;5051481;28;20448;-69
2023/06/06 10:32:30;;;;;;;56.87;2.53;;;;;;;;;;5052206;28;20479;-68
2023/06/06 10:34:58;;;;;;;56.77;2.67;;;;;;;;;;5051889;28;20445;-68
2023/06/06 10:37:26;;;;;;;57.23;2.63;;;;;;;;;;5052196;28;20539;-66
2023/06/06 10:40:03;;;;;;;56.50;2.00;;;;;;;;;;5051292;28;20458;-66
2023/06/06 10:42:37;;;;;;;56.10;1.80;;;;;;;;;;5052207;28;20479;-67
2023/06/06 10:45:04;;;;;;;55.97;2.23;;;;;;;;;;5051700;28;20479;-68
2023/06/06 10:47:33;;;;;;;56.10;2.00;;;;;;;;;;5051805;28;20959;-66
2023/06/06 10:50:22;;;;;;;55.90;2.10;;;;;;;;;;5051317;28;20507;-66
2023/06/06 10:52:50;;;;;;;56.10;2.13;;;;;;;;;;5052216;28;20473;-66
2023/06/06 10:55:18;;;;;;;55.90;2.00;;;;;;;;;;5051602;28;20568;-66
2023/06/06 10:57:52;;;;;;;56.37;2.57;;;;;;;;;;5051449;28;20444;-66
2023/06/06 11:00:22;;;;;;;59.00;2.33;;;;;;;;;;5050832;28;20851;-66
2023/06/06 11:02:52;;;;;;;56.07;2.03;;;;;;;;;;5051519;28;20543;-68
2023/06/06 11:05:21;;;;;;;56.30;2.37;;;;;;;;;;5051553;28;20491;-66
2023/06/06 11:07:50;;;;;;;56.13;1.70;;;;;;;;;;5051448;28;20551;-66
2023/06/06 11:10:21;;;;;;;56.00;2.10;;;;;;;;;;5050765;28;20455;-67
2023/06/06 11:12:49;;;;;;;55.57;1.97;;;;;;;;;;5051269;28;20467;-67
2023/06/06 11:15:27;;;;;;;55.73;2.20;;;;;;;;;;5051284;28;20444;-66
2023/06/06 11:18:01;;;;;;;56.10;2.50;;;;;;;;;;5051456;28;20428;-67
2023/06/06 11:20:29;;;;;;;55.80;2.37;;;;;;;;;;5050756;28;20440;-66
2023/06/06 11:23:01;;;;;;;55.27;2.00;;;;;;;;;;5051000;28;20567;-67
2023/06/06 11:25:30;;;;;;;55.57;1.83;;;;;;;;;;5051259;28;20468;-66
2023/06/06 11:27:58;;;;;;;56.07;1.83;;;;;;;;;;5051130;28;20954;-67
2023/06/06 11:30:25;;;;;;;55.83;2.07;;;;;;;;;;5050386;28;20956;-67
2023/06/06 11:32:52;;;;;;;56.17;2.03;;;;;;;;;;5051070;28;20476;-68
2023/06/06 11:35:21;;;;;;;56.37;2.20;;;;;;;;;;5051128;28;20837;-67
2023/06/06 11:37:49;;;;;;;56.00;1.80;;;;;;;;;;5051251;28;20455;-66
2023/06/06 11:40:16;;;;;;;56.60;2.40;;;;;;;;;;5050519;28;20452;-66
2023/06/06 11:42:44;;;;;;;56.80;2.17;;;;;;;;;;5050781;28;20993;-67
2023/06/06 11:45:15;;;;;;;56.20;2.00;;;;;;;;;;5051086;28;20486;-67
2023/06/06 11:47:42;;;;;;;56.30;2.40;;;;;;;;;;5050678;28;20966;-67
2023/06/06 11:50:10;;;;;;;55.90;1.80;;;;;;;;;;5050392;28;20444;-66
2023/06/06 11:52:48;;;;;;;56.23;2.20;;;;;;;;;;5050919;28;20472;-67
2023/06/06 11:55:16;;;;;;;56.03;2.07;;;;;;;;;;5050723;28;20448;-67
2023/06/06 11:57:43;;;;;;;55.60;1.70;;;;;;;;;;5050742;28;20459;-67
2023/06/06 12:00:12;;;;;;;55.60;1.60;;;;;;;;;;5049949;28;20448;-67
2023/06/06 12:02:40;;;;;;;55.80;2.03;;;;;;;;;;5050918;28;20471;-67
2023/06/06 12:05:17;;;;;;;55.70;1.73;;;;;;;;;;5050746;28;20487;-67
2023/06/06 12:07:44;;;;;;;55.90;2.00;;;;;;;;;;5050645;28;20542;-67
2023/06/06 12:10:13;;;;;;;57.33;2.10;;;;;;;;;;5049959;28;20940;-67
2023/06/06 12:12:45;;;;;;;56.93;2.30;;;;;;;;;;5050392;28;20955;-67
2023/06/06 12:15:12;;;;;;;56.10;1.77;;;;;;;;;;5050903;28;20439;-67
2023/06/06 12:17:39;;;;;;;56.13;2.30;;;;;;;;;;5050523;28;20956;-67
2023/06/06 12:20:07;;;;;;;56.00;2.23;;;;;;;;;;5050018;28;20451;-67
2023/06/06 12:22:35;;;;;;;55.57;2.10;;;;;;;;;;5050800;28;20487;-67
2023/06/06 12:25:02;;;;;;;55.70;1.90;;;;;;;;;;5050255;28;20491;-67
2023/06/06 12:27:33;;;;;;;55.70;2.03;;;;;;;;;;5050618;28;20451;-67
2023/06/06 12:30:01;;;;;;;55.70;2.13;;;;;;;;;;5050072;28;20441;-67
2023/06/06 12:32:30;;;;;;;55.40;1.90;;;;;;;;;;5050261;28;20475;-67
2023/06/06 12:35:01;;;;;;;55.90;1.90;;;;;;;;;;5050698;28;20452;-67
2023/06/06 12:37:36;;;;;;;55.60;2.20;;;;;;;;;;5050974;28;20519;-67
2023/06/06 12:40:08;;;;;;;55.33;1.97;;;;;;;;;;5053707;28;20550;-67
2023/06/06 12:42:37;;;;;;;55.30;1.80;;;;;;;;;;5053993;28;20559;-67
2023/06/06 12:45:04;;;;;;;55.97;2.10;;;;;;;;;;5054400;28;20824;-67
2023/06/06 12:47:32;;;;;;;55.40;2.07;;;;;;;;;;5053913;28;20460;-67
2023/06/06 12:50:00;;;;;;;55.90;2.40;;;;;;;;;;5053630;28;20452;-67
2023/06/06 12:52:27;;;;;;;56.77;3.93;;;;;;;;;;5053786;28;20557;-67
2023/06/06 12:54:55;;;;;;;55.53;2.00;;;;;;;;;;5054013;28;20490;-67
2023/06/06 12:57:22;;;;;;;55.60;2.20;;;;;;;;;;5053666;28;20452;-67
2023/06/06 12:59:50;;;;;;;55.60;1.80;;;;;;;;;;5053473;28;20458;-67
2023/06/06 13:02:18;;;;;;;55.57;2.20;;;;;;;;;;5053975;28;20468;-67
2023/06/06 13:04:45;;;;;;;55.83;2.30;;;;;;;;;;5053873;28;20445;-67
2023/06/06 13:07:12;;;;;;;55.70;1.97;;;;;;;;;;5053711;28;20980;-67
2023/06/06 13:09:39;;;;;;;55.53;1.90;;;;;;;;;;5053168;28;20452;-67
2023/06/06 13:12:08;;;;;;;55.83;2.23;;;;;;;;;;5053875;28;20463;-67
2023/06/06 13:14:36;;;;;;;55.67;1.87;;;;;;;;;;5053596;28;20463;-67
2023/06/06 13:17:04;;;;;;;55.60;2.00;;;;;;;;;;5053696;28;20445;-67
2023/06/06 13:19:32;;;;;;;55.77;2.10;;;;;;;;;;5052723;28;20973;-67
2023/06/06 13:21:59;;;;;;;55.53;2.20;;;;;;;;;;5053656;28;20848;-67
2023/06/06 13:24:26;;;;;;;56.20;2.40;;;;;;;;;;5053387;28;20448;-67
2023/06/06 13:26:53;;;;;;;55.30;2.13;;;;;;;;;;5053705;28;20444;-68
2023/06/06 13:29:20;;;;;;;55.30;1.90;;;;;;;;;;5052939;28;20794;-68
2023/06/06 13:31:47;;;;;;;55.30;1.83;;;;;;;;;;5053286;28;20475;-68
2023/06/06 13:34:16;;;;;;;55.80;2.67;;;;;;;;;;5053192;28;20467;-68
2023/06/06 13:36:43;;;;;;;55.27;1.77;;;;;;;;;;5053373;28;20495;-68
2023/06/06 13:39:10;;;;;;;55.47;1.70;;;;;;;;;;5052385;28;20454;-67
2023/06/06 13:41:37;;;;;;;56.33;2.10;;;;;;;;;;5053246;28;20459;-68
2023/06/06 13:44:04;;;;;;;55.47;2.00;;;;;;;;;;5053208;28;20535;-68
2023/06/06 13:46:32;;;;;;;55.47;2.00;;;;;;;;;;5052766;28;20445;-68
2023/06/06 13:49:01;;;;;;;55.67;2.20;;;;;;;;;;5051473;28;20455;-67
2023/06/06 13:51:29;;;;;;;55.70;2.00;;;;;;;;;;5052379;28;20541;-67
2023/06/06 13:53:56;;;;;;;55.20;1.80;;;;;;;;;;5052930;28;20455;-68
2023/06/06 13:56:25;;;;;;;55.10;1.80;;;;;;;;;;5052630;28;20880;-67
2023/06/06 13:58:54;;;;;;;55.30;1.83;;;;;;;;;;5051887;28;20452;-67
2023/06/06 14:01:22;;;;;;;55.70;1.80;;;;;;;;;;5053008;28;20487;-68
2023/06/06 14:03:49;;;;;;;55.77;2.27;;;;;;;;;;5052880;28;20507;-68
2023/06/06 14:06:16;;;;;;;56.03;2.40;;;;;;;;;;5052575;28;20495;-68
2023/06/06 14:08:45;;;;;;;55.70;2.00;;;;;;;;;;5052161;28;20452;-68
2023/06/06 14:11:12;;;;;;;55.57;1.80;;;;;;;;;;5052532;28;20449;-68
2023/06/06 14:13:40;;;;;;;55.97;2.20;;;;;;;;;;5052239;28;20551;-68
2023/06/06 14:16:07;;;;;;;55.60;1.67;;;;;;;;;;5052473;28;20484;-68
2023/06/06 14:18:35;;;;;;;55.87;1.87;;;;;;;;;;5051959;28;20502;-68
2023/06/06 14:21:19;;;;;;;55.83;1.77;;;;;;;;;;5052461;28;20454;-69
2023/06/06 14:23:49;;;;;;;55.87;1.80;;;;;;;;;;5052274;28;20472;-69
2023/06/06 14:26:20;;;;;;;55.87;2.37;;;;;;;;;;5052373;28;20761;-68
2023/06/06 14:28:49;;;;;;;55.60;1.93;;;;;;;;;;5051615;28;20463;-68
2023/06/06 14:31:16;;;;;;;56.27;1.70;;;;;;;;;;5052259;28;20480;-68
2023/06/06 14:33:44;;;;;;;55.57;1.80;;;;;;;;;;5052102;28;20474;-68
2023/06/06 14:36:11;;;;;;;55.90;1.90;;;;;;;;;;5052204;28;20845;-68